Time;durP1;ratioP1;P1;durP2;ratioP2;P2;SDS_P1;SDS_P2;PMS_P1;PMS_P2;Temp;Humidity;BMP_temperature;BMP_pressure;BME280_temperature;BME280_humidity;BME280_pressure;Samples;Min_cycle;Max_cycle;Signal;HPM_P1;HPM_P2
2022/12/19 00:05:11;;;;;;;2.78;0.80;;;;;;;-143.29;100.00;62188.47;6116235;23;20010;-96
2022/12/19 00:08:39;;;;;;;6.07;0.88;;;;;;;-143.29;100.00;62188.47;6103685;23;20010;-96
2022/12/19 00:11:31;;;;;;;7.40;1.13;;;;;;;-143.29;100.00;62188.47;6104304;23;20015;-96
2022/12/19 00:18:49;;;;;;;7.75;1.33;;;;;;;-143.29;100.00;62188.47;6017249;23;20261;-96
2022/12/19 00:25:27;;;;;;;12.05;2.13;;;;;;;-143.29;100.00;62188.47;6015901;23;20463;-96
2022/12/19 00:28:57;;;;;;;14.38;2.40;;;;;;;-143.29;100.00;62188.47;5993233;23;20012;-94
2022/12/19 00:41:07;;;;;;;18.98;2.58;;;;;;;-143.29;100.00;62188.47;6162917;23;20021;-96
2022/12/19 00:56:41;;;;;;;12.55;1.70;;;;;;;-143.29;100.00;62188.47;5943988;24;20051;-96
2022/12/19 01:47:46;;;;;;;15.60;2.53;;;;;;;-143.29;100.00;62188.47;6112570;23;20062;-96
2022/12/19 01:51:09;;;;;;;23.52;2.67;;;;;;;-143.29;100.00;62188.47;6140850;23;20009;-96
2022/12/19 01:54:33;;;;;;;16.90;3.70;;;;;;;-143.29;100.00;62188.47;6141657;23;20036;-96
2022/12/19 01:58:01;;;;;;;;;;;;;;;;;;;;;
2022/12/19 02:01:24;;;;;;;17.20;2.47;;;;;;;-143.29;100.00;62188.47;6147846;23;20440;-96
2022/12/19 02:04:35;;;;;;;;;;;;;;;;;;;;;
2022/12/19 02:07:53;;;;;;;;;;;;;;;;;;;;;
2022/12/19 02:11:19;;;;;;;;;;;;;;;;;;;;;
2022/12/19 02:14:22;;;;;;;17.27;3.95;;;;;;;-143.29;100.00;62188.47;6168075;23;20006;-96
2022/12/19 02:17:50;;;;;;;;;;;;;;;;;;;;;
2022/12/19 02:21:41;;;;;;;;;;;;;;;;;;;;;
2022/12/19 02:24:48;;;;;;;22.98;2.85;;;;;;;-143.29;100.00;62188.47;6051517;23;20049;-96
2022/12/19 02:32:07;;;;;;;;;;;;;;;;;;;;;
2022/12/19 02:35:21;;;;;;;24.50;3.35;;;;;;;-143.29;100.00;62188.47;6163305;23;20025;-96
2022/12/19 02:38:31;;;;;;;28.05;3.85;;;;;;;-143.29;100.00;62188.47;6135562;23;20033;-95
2022/12/19 02:41:46;;;;;;;31.65;4.88;;;;;;;-143.29;100.00;62188.47;6140182;23;20081;-96
2022/12/19 02:44:39;;;;;;;29.63;4.90;;;;;;;-143.29;100.00;62188.47;6134645;23;20010;-96
2022/12/19 02:47:50;;;;;;;;;;;;;;;-143.29;100.00;62188.47;6162085;23;20001;-96
2022/12/19 02:50:37;;;;;;;41.53;5.45;;;;;;;-143.29;100.00;62188.47;6133950;23;19904;-96
2022/12/19 02:53:24;;;;;;;51.70;7.75;;;;;;;-143.29;100.00;62188.47;6134470;23;20001;-96
2022/12/19 02:56:44;;;;;;;54.45;7.80;;;;;;;-143.29;100.00;62188.47;6133822;23;20009;-95
2022/12/19 02:59:44;;;;;;;38.50;6.60;;;;;;;-143.29;100.00;62188.47;6137981;23;20006;-96
2022/12/19 03:03:10;;;;;;;43.15;6.22;;;;;;;-143.29;100.00;62188.47;6139258;23;20026;-96
2022/12/19 03:06:19;;;;;;;56.88;7.10;;;;;;;-143.29;100.00;62188.47;6142702;23;20014;-96
2022/12/19 03:09:33;;;;;;;50.92;7.35;;;;;;;-143.29;100.00;62188.47;6142645;23;20001;-96
2022/12/19 03:12:44;;;;;;;47.40;6.50;;;;;;;-143.29;100.00;62188.47;6143473;23;20029;-96
2022/12/19 03:15:34;;;;;;;56.50;8.18;;;;;;;-143.29;100.00;62188.47;6137750;23;20009;-96
2022/12/19 03:18:21;;;;;;;52.38;6.68;;;;;;;-143.29;100.00;62188.47;6143505;23;20012;-96
2022/12/19 03:21:24;;;;;;;35.85;5.60;;;;;;;-143.29;100.00;62188.47;6133683;23;20092;-96
2022/12/19 03:24:15;;;;;;;31.85;5.22;;;;;;;-143.29;100.00;62188.47;6132961;23;20009;-96
2022/12/19 03:27:10;;;;;;;31.77;4.53;;;;;;;-143.29;100.00;62188.47;6135735;23;20014;-96
2022/12/19 03:33:26;;;;;;;26.38;3.28;;;;;;;-143.29;100.00;62188.47;6175065;23;20028;-96
2022/12/19 03:36:29;;;;;;;11.20;2.40;;;;;;;-143.29;100.00;62188.47;6152778;23;20037;-96
2022/12/19 03:39:36;;;;;;;15.95;2.08;;;;;;;-143.29;100.00;62188.47;6140700;23;20006;-96
2022/12/19 03:45:49;;;;;;;9.10;2.08;;;;;;;-143.29;100.00;62188.47;6166198;23;20027;-96
2022/12/19 03:48:51;;;;;;;12.40;1.92;;;;;;;-143.29;100.00;62188.47;6141576;23;20048;-96
2022/12/19 03:51:44;;;;;;;13.43;2.22;;;;;;;-143.29;100.00;62188.47;6139133;23;20016;-96
2022/12/19 03:55:23;;;;;;;9.80;1.80;;;;;;;-143.29;100.00;62188.47;6140916;23;20011;-96
2022/12/19 03:58:29;;;;;;;18.42;2.55;;;;;;;-143.29;100.00;62188.47;6144965;23;20010;-94
2022/12/19 04:01:30;;;;;;;8.77;1.73;;;;;;;-143.29;100.00;62188.47;6146868;23;20013;-95
2022/12/19 04:04:20;;;;;;;19.52;2.50;;;;;;;-143.29;100.00;62188.47;6135098;23;20016;-94
2022/12/19 04:07:09;;;;;;;18.20;2.35;;;;;;;-143.29;100.00;62188.47;6138556;23;20014;-96
2022/12/19 04:09:59;;;;;;;18.70;4.38;;;;;;;-143.29;100.00;62188.47;6137028;23;20005;-96
2022/12/19 04:12:59;;;;;;;18.38;2.50;;;;;;;-143.29;100.00;62188.47;6135224;23;20033;-95
2022/12/19 04:16:15;;;;;;;15.02;2.75;;;;;;;-143.29;100.00;62188.47;6139186;23;20005;-95
2022/12/19 04:19:10;;;;;;;16.27;2.85;;;;;;;-143.29;100.00;62188.47;6136185;23;20380;-96
2022/12/19 04:22:03;;;;;;;18.08;3.35;;;;;;;-143.29;100.00;62188.47;6133222;23;20005;-96
2022/12/19 04:24:53;;;;;;;23.30;3.50;;;;;;;-143.29;100.00;62188.47;6132075;23;20013;-96
2022/12/19 04:27:44;;;;;;;18.25;2.53;;;;;;;-143.29;100.00;62188.47;6132652;23;20421;-96
2022/12/19 04:30:36;;;;;;;11.75;2.13;;;;;;;-143.29;100.00;62188.47;6132001;23;20035;-95
2022/12/19 04:33:22;;;;;;;15.10;2.15;;;;;;;-143.29;100.00;62188.47;6131664;23;20017;-95
2022/12/19 04:36:09;;;;;;;7.22;1.70;;;;;;;-143.29;100.00;62188.47;6131126;23;20009;-96
2022/12/19 04:38:56;;;;;;;14.02;2.40;;;;;;;-143.29;100.00;62188.47;6131200;23;20009;-96
2022/12/19 04:41:42;;;;;;;13.40;2.03;;;;;;;-143.29;100.00;62188.47;6132152;23;20089;-96
2022/12/19 04:44:28;;;;;;;14.82;3.13;;;;;;;-143.29;100.00;62188.47;6130652;23;20006;-96
2022/12/19 04:47:14;;;;;;;12.65;2.08;;;;;;;-143.29;100.00;62188.47;6131908;23;20344;-96
2022/12/19 04:50:00;;;;;;;15.15;3.92;;;;;;;-143.29;100.00;62188.47;6130647;23;20005;-96
2022/12/19 04:52:47;;;;;;;17.23;2.50;;;;;;;-143.29;100.00;62188.47;6131218;23;20016;-95
2022/12/19 04:55:38;;;;;;;12.68;2.22;;;;;;;-143.29;100.00;62188.47;6131700;23;20013;-96
2022/12/19 04:58:26;;;;;;;13.23;2.33;;;;;;;-143.29;100.00;62188.47;6133660;23;20014;-96
2022/12/19 05:01:13;;;;;;;12.85;2.55;;;;;;;-143.29;100.00;62188.47;6133038;23;20013;-96
2022/12/19 05:04:00;;;;;;;13.80;2.67;;;;;;;-143.29;100.00;62188.47;6135053;23;20012;-96
2022/12/19 05:06:46;;;;;;;12.05;2.38;;;;;;;-143.29;100.00;62188.47;6134649;23;20084;-96
2022/12/19 05:09:35;;;;;;;15.85;2.47;;;;;;;-143.29;100.00;62188.47;6137297;23;20010;-96
2022/12/19 05:12:24;;;;;;;8.10;2.78;;;;;;;-143.29;100.00;62188.47;6141405;23;20009;-96
2022/12/19 05:15:10;;;;;;;16.27;2.60;;;;;;;-143.29;100.00;62188.47;6133971;23;20008;-96
2022/12/19 05:17:57;;;;;;;15.10;2.45;;;;;;;-143.29;100.00;62188.47;6133488;23;20032;-96
2022/12/19 05:20:47;;;;;;;10.48;2.35;;;;;;;-143.29;100.00;62188.47;6137936;23;20005;-96
2022/12/19 05:23:33;;;;;;;17.52;2.67;;;;;;;-143.29;100.00;62188.47;6137287;23;20005;-96
2022/12/19 05:26:21;;;;;;;22.75;2.78;;;;;;;-143.29;100.00;62188.47;6132228;23;20006;-96
2022/12/19 05:29:19;;;;;;;25.02;3.45;;;;;;;-143.29;100.00;62188.47;6136801;23;20306;-95
2022/12/19 05:32:05;;;;;;;23.40;4.32;;;;;;;-143.29;100.00;62188.47;6130612;23;20345;-96
2022/12/19 05:34:51;;;;;;;26.10;3.85;;;;;;;-143.29;100.00;62188.47;6133575;23;20006;-96
2022/12/19 05:37:37;;;;;;;30.13;4.68;;;;;;;-143.29;100.00;62188.47;6135016;23;20041;-96
2022/12/19 05:40:39;;;;;;;30.40;4.75;;;;;;;-143.29;100.00;62188.47;6134211;23;20009;-96
2022/12/19 05:43:27;;;;;;;26.35;3.83;;;;;;;-143.29;100.00;62188.47;6131390;23;20010;-96
2022/12/19 05:46:24;;;;;;;25.90;4.40;;;;;;;-143.29;100.00;62188.47;6142236;23;20005;-96
2022/12/19 05:49:15;;;;;;;25.13;3.90;;;;;;;-143.29;100.00;62188.47;6139197;23;20065;-96
2022/12/19 05:52:04;;;;;;;17.20;3.28;;;;;;;-143.29;100.00;62188.47;6142662;23;20012;-96
2022/12/19 05:55:00;;;;;;;24.65;3.50;;;;;;;-143.29;100.00;62188.47;6145421;23;20079;-96
2022/12/19 05:58:12;;;;;;;19.00;3.42;;;;;;;-143.29;100.00;62188.47;6124305;23;20002;-96
2022/12/19 06:01:14;;;;;;;30.02;4.22;;;;;;;-143.29;100.00;62188.47;6155778;23;20006;-96
2022/12/19 06:04:07;;;;;;;25.75;4.28;;;;;;;-143.29;100.00;62188.47;6149396;23;20006;-96
2022/12/19 06:06:53;;;;;;;32.35;4.47;;;;;;;-143.29;100.00;62188.47;6143337;23;20007;-96
2022/12/19 06:09:42;;;;;;;20.83;4.18;;;;;;;-143.29;100.00;62188.47;6143293;23;20088;-96
2022/12/19 06:13:01;;;;;;;21.30;3.78;;;;;;;-143.29;100.00;62188.47;6171932;23;20006;-96
2022/12/19 06:16:43;;;;;;;;;;;;;;;;;;;;;
2022/12/19 06:20:18;;;;;;;20.52;3.28;;;;;;;-143.29;100.00;62188.47;6078041;23;20030;-96
2022/12/19 06:23:15;;;;;;;16.23;3.72;;;;;;;-143.29;100.00;62188.47;6126303;23;20013;-96
2022/12/19 08:52:56;;;;;;;22.38;3.15;;;;;;;-143.29;100.00;62188.47;6157110;23;20014;-95
2022/12/19 08:55:42;;;;;;;14.70;3.58;;;;;;;-143.29;100.00;62188.47;6130076;23;20529;-95
2022/12/19 08:58:29;;;;;;;21.98;3.67;;;;;;;-143.29;100.00;62188.47;6130415;23;20017;-96
2022/12/19 09:01:19;;;;;;;21.60;2.85;;;;;;;-143.29;100.00;62188.47;6130399;23;20013;-96
2022/12/19 09:04:05;;;;;;;12.45;2.85;;;;;;;-143.29;100.00;62188.47;6130735;23;20005;-96
2022/12/19 09:06:48;;;;;;;17.58;2.45;;;;;;;-143.29;100.00;62188.47;6130366;23;20009;-95
2022/12/19 09:09:13;;;;;;;13.38;2.30;;;;;;;-143.29;100.00;62188.47;6129766;23;20033;-96
2022/12/19 09:11:45;;;;;;;21.08;2.80;;;;;;;-143.29;100.00;62188.47;6130340;23;20013;-95
2022/12/19 09:14:11;;;;;;;14.75;2.47;;;;;;;-143.29;100.00;62188.47;6132677;23;20092;-96
2022/12/19 09:16:36;;;;;;;14.35;3.55;;;;;;;-143.29;100.00;62188.47;6129634;23;20005;-96
2022/12/19 09:19:02;;;;;;;13.80;1.95;;;;;;;-143.29;100.00;62188.47;6131030;23;20047;-96
2022/12/19 09:21:28;;;;;;;16.05;2.28;;;;;;;-143.29;100.00;62188.47;6156388;23;20417;-96
2022/12/19 09:23:57;;;;;;;12.20;1.42;;;;;;;-143.29;100.00;62188.47;6130147;23;20464;-96
2022/12/19 09:26:25;;;;;;;10.25;1.48;;;;;;;-143.29;100.00;62188.47;6132388;23;20002;-95
2022/12/19 09:28:51;;;;;;;6.25;1.30;;;;;;;-143.29;100.00;62188.47;6133215;23;20032;-96
2022/12/19 09:31:22;;;;;;;12.63;1.65;;;;;;;-143.29;100.00;62188.47;6135891;23;20428;-96
2022/12/19 09:33:48;;;;;;;4.57;1.20;;;;;;;-143.29;100.00;62188.47;6136333;23;20069;-95
2022/12/19 09:36:19;;;;;;;10.13;1.67;;;;;;;-143.29;100.00;62188.47;6137185;23;20013;-95
2022/12/19 14:25:10;;;;;;;32.90;5.15;;;;;;;-143.29;100.00;62188.47;6156878;23;20080;-94
2022/12/19 14:27:58;;;;;;;31.08;3.67;;;;;;;-143.29;100.00;62188.47;6130602;23;20092;-93
2022/12/19 14:30:29;;;;;;;29.05;4.68;;;;;;;-143.29;100.00;62188.47;6130662;23;20155;-93
2022/12/19 14:32:57;;;;;;;38.53;5.00;;;;;;;-143.29;100.00;62188.47;6130474;23;20141;-94
2022/12/19 14:35:26;;;;;;;34.15;4.75;;;;;;;-143.29;100.00;62188.47;6130787;23;20002;-94
2022/12/19 14:38:07;;;;;;;44.53;4.80;;;;;;;-143.29;100.00;62188.47;6130355;23;20084;-96
2022/12/19 14:40:39;;;;;;;30.45;4.43;;;;;;;-143.29;100.00;62188.47;6127324;23;20018;-94
2022/12/19 14:43:37;;;;;;;37.28;5.95;;;;;;;-143.29;100.00;62188.47;6126654;23;20010;-94
2022/12/19 14:46:21;;;;;;;39.33;5.15;;;;;;;-143.29;100.00;62188.47;6126529;23;20013;-94
2022/12/19 14:48:57;;;;;;;31.45;4.63;;;;;;;-143.29;100.00;62188.47;6102661;23;20119;-94
2022/12/19 16:01:03;;;;;;;48.95;7.63;;;;;;;-143.29;100.00;62188.47;6159241;23;20029;-96
2022/12/19 16:03:29;;;;;;;48.13;7.00;;;;;;;-143.29;100.00;62188.47;6130474;23;20045;-95
2022/12/19 16:06:05;;;;;;;57.15;7.95;;;;;;;-143.29;100.00;62188.47;6131157;23;20507;-96
2022/12/19 16:11:44;;;;;;;68.82;9.57;;;;;;;-143.29;100.00;62188.47;6157463;23;20013;-96
2022/12/19 16:14:50;;;;;;;56.50;7.90;;;;;;;-143.29;100.00;62188.47;6131778;23;20005;-96
2022/12/19 16:17:48;;;;;;;50.20;6.97;;;;;;;-143.29;100.00;62188.47;6133598;23;20005;-96
2022/12/19 16:20:21;;;;;;;40.47;5.55;;;;;;;-143.29;100.00;62188.47;6132104;23;20005;-96
2022/12/19 16:22:59;;;;;;;38.92;5.20;;;;;;;-143.29;100.00;62188.47;6130438;23;20012;-96
2022/12/19 16:25:40;;;;;;;40.38;4.70;;;;;;;-143.29;100.00;62188.47;6133469;23;20005;-96
2022/12/19 16:28:25;;;;;;;27.10;4.60;;;;;;;-143.29;100.00;62188.47;6134924;23;20036;-96
2022/12/19 16:31:08;;;;;;;;;;;;;;;;;;;;;
2022/12/19 16:34:02;;;;;;;;;;;;;;;;;;;;;
2022/12/19 16:36:31;;;;;;;25.75;5.53;;;;;;;-143.29;100.00;62188.47;6159084;23;20084;-96
2022/12/19 16:38:57;;;;;;;25.02;4.65;;;;;;;-143.29;100.00;62188.47;6130524;23;20014;-96
2022/12/19 16:41:24;;;;;;;28.70;4.05;;;;;;;-143.29;100.00;62188.47;6130713;23;20040;-96
2022/12/19 16:43:50;;;;;;;29.15;4.65;;;;;;;-143.29;100.00;62188.47;6129975;23;20036;-96
2022/12/19 16:46:24;;;;;;;28.50;4.20;;;;;;;-143.29;100.00;62188.47;6129435;23;20009;-96
2022/12/19 16:48:50;;;;;;;23.10;4.30;;;;;;;-143.29;100.00;62188.47;6130202;23;20145;-96
2022/12/19 16:51:21;;;;;;;29.27;4.85;;;;;;;-143.29;100.00;62188.47;6130397;23;20211;-96
2022/12/19 16:53:49;;;;;;;33.13;5.00;;;;;;;-143.29;100.00;62188.47;6129811;23;20335;-96
2022/12/19 16:56:29;;;;;;;30.13;4.43;;;;;;;-143.29;100.00;62188.47;6129755;23;20562;-96
2022/12/19 16:58:57;;;;;;;33.22;4.20;;;;;;;-143.29;100.00;62188.47;6129842;23;20331;-96
2022/12/19 17:01:23;;;;;;;24.65;3.30;;;;;;;-143.29;100.00;62188.47;6129007;23;20391;-96
2022/12/19 17:03:48;;;;;;;36.17;3.95;;;;;;;-143.29;100.00;62188.47;6129219;23;20005;-96
2022/12/19 17:06:17;;;;;;;30.13;5.25;;;;;;;-143.29;100.00;62188.47;6129571;23;20005;-96
2022/12/19 17:08:43;;;;;;;30.17;4.28;;;;;;;-143.29;100.00;62188.47;6128905;23;20009;-96
2022/12/19 17:11:15;;;;;;;33.40;4.40;;;;;;;-143.29;100.00;62188.47;6130939;23;20006;-94
2022/12/19 17:13:42;;;;;;;19.27;3.53;;;;;;;-143.29;100.00;62188.47;6132582;23;20005;-96
2022/12/19 17:16:08;;;;;;;24.92;3.22;;;;;;;-143.29;100.00;62188.47;6133104;23;20084;-96
2022/12/19 17:18:37;;;;;;;16.35;2.72;;;;;;;-143.29;100.00;62188.47;6133427;23;20006;-96
2022/12/19 17:21:03;;;;;;;23.67;3.42;;;;;;;-143.29;100.00;62188.47;6134066;23;20005;-96
2022/12/19 17:23:31;;;;;;;25.85;3.50;;;;;;;-143.29;100.00;62188.47;6135385;23;20024;-96
2022/12/19 17:25:59;;;;;;;24.65;4.55;;;;;;;-143.29;100.00;62188.47;6133721;23;20024;-95
2022/12/19 17:28:25;;;;;;;23.27;3.67;;;;;;;-143.29;100.00;62188.47;6133966;23;20016;-95
2022/12/19 17:30:56;;;;;;;31.08;4.25;;;;;;;-143.29;100.00;62188.47;6133517;23;20001;-95
2022/12/19 17:33:26;;;;;;;32.85;4.40;;;;;;;-143.29;100.00;62188.47;6131800;23;20057;-94
2022/12/19 17:35:52;;;;;;;22.70;3.60;;;;;;;-143.29;100.00;62188.47;6131537;23;20001;-96
2022/12/19 17:38:20;;;;;;;29.90;4.03;;;;;;;-143.29;100.00;62188.47;6131343;23;20005;-96
2022/12/19 17:40:45;;;;;;;21.95;3.58;;;;;;;-143.29;100.00;62188.47;6132189;23;20069;-96
2022/12/19 17:43:11;;;;;;;29.75;4.30;;;;;;;-143.29;100.00;62188.47;6132465;23;20013;-95
2022/12/19 17:45:38;;;;;;;23.15;4.43;;;;;;;-143.29;100.00;62188.47;6132067;23;20013;-96
2022/12/19 17:48:12;;;;;;;19.25;3.97;;;;;;;-143.29;100.00;62188.47;6133162;23;20093;-96
2022/12/19 17:50:39;;;;;;;22.92;3.10;;;;;;;-143.29;100.00;62188.47;6142619;23;20354;-95
2022/12/19 17:53:05;;;;;;;27.88;4.35;;;;;;;-143.29;100.00;62188.47;6143338;23;20005;-95
2022/12/19 17:55:32;;;;;;;23.58;3.17;;;;;;;-143.29;100.00;62188.47;6141884;23;20012;-95
2022/12/19 17:57:58;;;;;;;16.20;2.70;;;;;;;-143.29;100.00;62188.47;6137152;23;20009;-95
2022/12/19 18:00:26;;;;;;;11.43;2.28;;;;;;;-143.29;100.00;62188.47;6136358;23;20433;-95
2022/12/19 18:02:53;;;;;;;12.75;2.47;;;;;;;-143.29;100.00;62188.47;6133319;23;20064;-96
2022/12/19 18:05:23;;;;;;;10.45;1.83;;;;;;;-143.29;100.00;62188.47;6133026;23;20428;-95
2022/12/19 18:08:02;;;;;;;;;;;;;;;;;;;;;
2022/12/19 18:10:30;;;;;;;8.50;1.33;;;;;;;-143.29;100.00;62188.47;6159034;23;20109;-95
2022/12/19 18:13:09;;;;;;;;;;;;;;;;;;;;;
2022/12/19 18:15:35;;;;;;;7.97;1.20;;;;;;;-143.29;100.00;62188.47;6162742;23;20066;-96
2022/12/19 18:18:01;;;;;;;6.72;1.85;;;;;;;-143.29;100.00;62188.47;6137020;23;20005;-96
2022/12/19 18:20:30;;;;;;;7.75;1.77;;;;;;;-143.29;100.00;62188.47;6134660;23;20009;-95
2022/12/19 18:25:35;;;;;;;4.75;0.80;;;;;;;-143.29;100.00;62188.47;6158892;23;20025;-94
2022/12/19 18:28:01;;;;;;;6.63;0.90;;;;;;;-143.29;100.00;62188.47;6133755;23;20015;-96
2022/12/19 18:30:27;;;;;;;10.05;1.27;;;;;;;-143.29;100.00;62188.47;6137728;23;20021;-96
2022/12/19 18:32:58;;;;;;;7.65;1.30;;;;;;;-143.29;100.00;62188.47;6134324;23;20016;-95
2022/12/19 18:35:37;;;;;;;4.43;0.88;;;;;;;-143.29;100.00;62188.47;6135939;23;20010;-96
2022/12/19 18:38:30;;;;;;;3.20;0.90;;;;;;;-143.29;100.00;62188.47;6132245;23;20002;-96
2022/12/19 18:41:08;;;;;;;6.93;2.63;;;;;;;-143.29;100.00;62188.47;6133594;23;20432;-96
2022/12/19 18:43:34;;;;;;;7.65;1.00;;;;;;;-143.29;100.00;62188.47;6131731;23;20028;-95
2022/12/19 18:46:05;;;;;;;9.30;0.98;;;;;;;-143.29;100.00;62188.47;6131419;23;20420;-96
2022/12/19 18:48:35;;;;;;;6.18;1.02;;;;;;;-143.29;100.00;62188.47;6131676;23;20012;-96
2022/12/19 18:51:02;;;;;;;4.40;0.93;;;;;;;-143.29;100.00;62188.47;6131477;23;20006;-96
2022/12/19 18:53:31;;;;;;;7.43;1.50;;;;;;;-143.29;100.00;62188.47;6131164;23;20440;-96
2022/12/19 18:55:58;;;;;;;5.22;0.90;;;;;;;-143.29;100.00;62188.47;6132035;23;20476;-96
2022/12/19 18:58:24;;;;;;;6.45;1.55;;;;;;;-143.29;100.00;62188.47;6130747;23;20104;-95
2022/12/19 19:00:49;;;;;;;13.30;2.40;;;;;;;-143.29;100.00;62188.47;6131324;23;20029;-95
2022/12/19 19:03:18;;;;;;;5.60;1.30;;;;;;;-143.29;100.00;62188.47;6131684;23;20148;-94
2022/12/19 21:46:12;;;;;;;11.00;1.58;;;;;;;-143.29;100.00;62188.47;6161122;23;20321;-95
2022/12/19 21:48:40;;;;;;;7.55;1.75;;;;;;;-143.29;100.00;62188.47;6129404;23;20133;-94
2022/12/19 21:51:07;;;;;;;13.50;1.52;;;;;;;-143.29;100.00;62188.47;6130149;23;20005;-95
2022/12/19 21:53:34;;;;;;;14.00;1.40;;;;;;;-143.29;100.00;62188.47;6130450;23;20100;-94
2022/12/19 21:56:25;;;;;;;7.65;1.45;;;;;;;-143.29;100.00;62188.47;6131902;23;20013;-93
2022/12/19 21:58:59;;;;;;;12.38;1.55;;;;;;;-143.29;100.00;62188.47;6133308;23;20088;-96
2022/12/19 22:01:28;;;;;;;15.57;1.77;;;;;;;-143.29;100.00;62188.47;6155434;23;20321;-95
2022/12/19 22:04:05;;;;;;;18.95;2.22;;;;;;;-143.29;100.00;62188.47;6130293;23;20002;-95
2022/12/19 22:06:34;;;;;;;17.67;1.98;;;;;;;-143.29;100.00;62188.47;6128628;23;20006;-94
2022/12/19 22:09:00;;;;;;;22.92;2.63;;;;;;;-143.29;100.00;62188.47;6129810;23;20006;-95
2022/12/19 22:11:27;;;;;;;25.10;2.67;;;;;;;-143.29;100.00;62188.47;6129043;23;20425;-95
2022/12/19 22:13:53;;;;;;;20.90;3.25;;;;;;;-143.29;100.00;62188.47;6128154;23;19997;-94
2022/12/19 22:16:55;;;;;;;;;;;;;;;;;;;;;
2022/12/19 22:19:30;;;;;;;24.33;3.80;;;;;;;-143.29;100.00;62188.47;6155212;23;20504;-93
2022/12/19 22:22:38;;;;;;;33.33;4.78;;;;;;;-143.29;100.00;62188.47;6130346;23;20109;-94
2022/12/19 22:25:04;;;;;;;22.55;3.50;;;;;;;-143.29;100.00;62188.47;6131524;23;20001;-92
2022/12/19 22:27:33;;;;;;;25.20;3.40;;;;;;;-143.29;100.00;62188.47;6130100;23;20021;-93
2022/12/19 22:30:09;;;;;;;19.98;3.17;;;;;;;-143.29;100.00;62188.47;6129787;23;20305;-94
2022/12/19 22:32:46;;;;;;;14.77;2.38;;;;;;;-143.29;100.00;62188.47;6129720;23;20037;-94
2022/12/19 22:35:16;;;;;;;18.42;2.17;;;;;;;-143.29;100.00;62188.47;6130875;23;20060;-95
2022/12/19 22:37:45;;;;;;;21.90;2.60;;;;;;;-143.29;100.00;62188.47;6131103;23;20061;-94
2022/12/19 22:40:13;;;;;;;20.90;2.75;;;;;;;-143.29;100.00;62188.47;6130623;23;20055;-95
2022/12/19 22:42:39;;;;;;;21.10;2.40;;;;;;;-143.29;100.00;62188.47;6131652;23;20028;-93
2022/12/19 22:45:05;;;;;;;22.70;2.33;;;;;;;-143.29;100.00;62188.47;6129890;23;20080;-93
2022/12/19 22:47:30;;;;;;;16.80;2.25;;;;;;;-143.29;100.00;62188.47;6130340;23;20010;-93
2022/12/19 22:49:56;;;;;;;15.65;2.60;;;;;;;-143.29;100.00;62188.47;6130623;23;20009;-93
2022/12/19 22:52:22;;;;;;;25.10;2.92;;;;;;;-143.29;100.00;62188.47;6130642;23;20009;-94
2022/12/19 22:54:48;;;;;;;13.68;2.58;;;;;;;-143.29;100.00;62188.47;6130824;23;20002;-94
2022/12/19 22:57:14;;;;;;;19.00;3.45;;;;;;;-143.29;100.00;62188.47;6130329;23;20012;-95
2022/12/19 22:59:40;;;;;;;19.42;3.55;;;;;;;-143.29;100.00;62188.47;6131255;23;20131;-95
2022/12/19 23:02:06;;;;;;;16.33;2.47;;;;;;;-143.29;100.00;62188.47;6130280;23;20005;-95
2022/12/19 23:04:34;;;;;;;19.80;2.88;;;;;;;-143.29;100.00;62188.47;6130774;23;20012;-95
2022/12/19 23:07:00;;;;;;;16.98;2.28;;;;;;;-143.29;100.00;62188.47;6130745;23;20486;-94
2022/12/19 23:09:26;;;;;;;13.20;1.90;;;;;;;-143.29;100.00;62188.47;6130653;23;20037;-95
2022/12/19 23:11:52;;;;;;;21.45;3.22;;;;;;;-143.29;100.00;62188.47;6130665;23;20032;-93
2022/12/19 23:14:21;;;;;;;21.13;2.25;;;;;;;-143.29;100.00;62188.47;6131122;23;20010;-95
2022/12/19 23:16:56;;;;;;;13.50;2.22;;;;;;;-143.29;100.00;62188.47;6132252;23;20009;-96
2022/12/19 23:20:13;;;;;;;21.75;2.65;;;;;;;-143.29;100.00;62188.47;6131734;23;20017;-96
2022/12/19 23:22:57;;;;;;;9.02;2.10;;;;;;;-143.29;100.00;62188.47;6109914;23;20025;-96
2022/12/19 23:25:29;;;;;;;16.25;2.58;;;;;;;-143.29;100.00;62188.47;6132384;23;20005;-95
2022/12/19 23:28:01;;;;;;;17.30;2.50;;;;;;;-143.29;100.00;62188.47;6131597;23;20021;-95
2022/12/19 23:30:34;;;;;;;14.63;3.10;;;;;;;-143.29;100.00;62188.47;6131306;23;20060;-96
2022/12/19 23:33:10;;;;;;;19.23;2.42;;;;;;;-143.29;100.00;62188.47;6131165;23;20006;-96
2022/12/19 23:35:38;;;;;;;35.35;3.40;;;;;;;-143.29;100.00;62188.47;6132069;23;20008;-95
2022/12/19 23:38:07;;;;;;;25.45;3.97;;;;;;;-143.29;100.00;62188.47;6131043;23;20399;-95
2022/12/19 23:40:36;;;;;;;19.48;2.83;;;;;;;-143.29;100.00;62188.47;6132647;23;20009;-95
2022/12/19 23:43:09;;;;;;;22.33;3.55;;;;;;;-143.29;100.00;62188.47;6131277;23;20009;-95
2022/12/19 23:45:54;;;;;;;20.63;3.83;;;;;;;-143.29;100.00;62188.47;6130497;23;20084;-96
2022/12/19 23:48:35;;;;;;;23.83;2.38;;;;;;;-143.29;100.00;62188.47;6131528;23;20484;-94
2022/12/19 23:51:14;;;;;;;15.50;2.88;;;;;;;-143.29;100.00;62188.47;6131403;23;20424;-94
2022/12/19 23:53:42;;;;;;;15.23;2.25;;;;;;;-143.29;100.00;62188.47;6130790;23;20020;-96
2022/12/19 23:56:35;;;;;;;22.65;4.18;;;;;;;-143.29;100.00;62188.47;6131609;23;20005;-96
2022/12/19 23:59:06;;;;;;;14.90;2.38;;;;;;;-143.29;100.00;62188.47;6129720;23;20415;-96
